createdAt,value
2022-11-06T00:01:59.297Z,110.67
2022-11-06T00:04:33.103Z,83.00
2022-11-06T00:07:04.953Z,84.67
2022-11-06T00:09:38.486Z,79.75
2022-11-06T00:12:11.365Z,69.75
2022-11-06T00:14:44.942Z,59.50
2022-11-06T00:17:19.490Z,58.00
2022-11-06T00:19:53.052Z,53.50
2022-11-06T00:22:26.017Z,43.25
2022-11-06T00:24:59.643Z,47.75
2022-11-06T00:27:32.761Z,43.00
2022-11-06T00:30:07.472Z,44.25
2022-11-06T00:32:42.861Z,40.75
2022-11-06T00:35:16.824Z,38.25
2022-11-06T00:37:50.699Z,38.50
2022-11-06T00:40:24.315Z,35.00
2022-11-06T00:42:58.475Z,34.50
2022-11-06T00:45:32.153Z,35.25
2022-11-06T00:48:07.056Z,30.50
2022-11-06T00:50:40.767Z,28.00
2022-11-06T00:53:14.561Z,31.00
2022-11-06T00:55:48.293Z,24.75
2022-11-06T00:58:22.133Z,20.75
2022-11-06T01:00:55.760Z,18.00
2022-11-06T01:03:31.074Z,28.75
2022-11-06T01:06:09.744Z,24.75
2022-11-06T01:08:44.037Z,25.75
2022-11-06T01:11:20.068Z,32.25
2022-11-06T01:13:57.096Z,26.50
2022-11-06T01:16:31.187Z,28.25
2022-11-06T01:19:07.083Z,34.00
2022-11-06T01:21:42.777Z,28.00
2022-11-06T01:24:18.882Z,22.50
2022-11-06T01:27:20.346Z,24.00
2022-11-06T01:29:46.144Z,18.25
2022-11-06T01:32:19.698Z,22.00
2022-11-06T01:34:55.134Z,49.00
2022-11-06T01:37:28.906Z,57.75
2022-11-06T01:40:02.610Z,62.50
2022-11-06T01:42:36.262Z,97.00
2022-11-06T01:45:24.513Z,76.67
2022-11-06T01:47:57.716Z,65.33
2022-11-06T01:50:32.978Z,63.00
2022-11-06T01:53:06.968Z,57.00
2022-11-06T01:55:44.136Z,58.00
2022-11-06T01:58:21.926Z,59.00
2022-11-06T02:00:55.278Z,59.50
2022-11-06T02:03:29.055Z,59.25
2022-11-06T02:06:05.348Z,56.00
2022-11-06T02:08:38.865Z,54.75
2022-11-06T02:11:12.499Z,57.75
2022-11-06T02:13:55.732Z,58.25
2022-11-06T02:16:41.478Z,52.50
2022-11-06T02:19:48.611Z,58.50
2022-11-06T02:22:51.161Z,55.75
2022-11-06T02:25:36.369Z,56.50
2022-11-06T02:28:16.737Z,53.75
2022-11-06T02:30:53.000Z,54.50
2022-11-06T02:33:31.776Z,50.50
2022-11-06T02:36:10.653Z,51.50
2022-11-06T02:38:51.095Z,50.25
2022-11-06T02:41:30.100Z,51.00
2022-11-06T02:44:08.461Z,55.00
2022-11-06T02:46:46.153Z,61.50
2022-11-06T02:49:25.805Z,55.50
2022-11-06T02:52:06.108Z,58.00
2022-11-06T02:54:46.681Z,63.50
2022-11-06T02:57:24.027Z,57.50
2022-11-06T03:00:05.349Z,60.25
2022-11-06T03:02:46.468Z,67.75
2022-11-06T03:05:25.418Z,61.50
2022-11-06T03:08:05.447Z,60.25
2022-11-06T03:10:45.334Z,54.50
2022-11-06T03:13:21.635Z,58.75
2022-11-06T03:16:05.316Z,66.75
2022-11-06T03:18:46.559Z,49.50
2022-11-06T03:21:26.032Z,44.75
2022-11-06T03:24:05.944Z,42.50
2022-11-06T03:26:41.908Z,42.75
2022-11-06T03:29:21.953Z,46.25
2022-11-06T03:32:02.754Z,48.00
2022-11-06T03:34:40.876Z,44.25
2022-11-06T03:37:20.055Z,52.50
2022-11-06T03:39:56.641Z,48.50
2022-11-06T03:42:32.127Z,51.50
2022-11-06T03:45:10.979Z,46.25
2022-11-06T03:47:50.552Z,53.25
2022-11-06T03:50:29.441Z,50.50
2022-11-06T03:53:10.052Z,57.25
2022-11-06T03:55:48.309Z,55.75
2022-11-06T03:58:26.635Z,54.00
2022-11-06T04:01:04.217Z,52.75
2022-11-06T04:03:43.658Z,55.75
2022-11-06T04:06:21.971Z,49.50
2022-11-06T04:09:16.898Z,53.25
2022-11-06T04:12:08.937Z,50.00
2022-11-06T04:14:47.381Z,50.50
2022-11-06T04:17:24.307Z,50.50
2022-11-06T04:20:03.117Z,49.50
2022-11-06T04:22:47.421Z,52.75
2022-11-06T04:25:51.358Z,49.50
2022-11-06T04:28:35.317Z,47.00
2022-11-06T04:31:14.001Z,49.75
2022-11-06T04:33:56.773Z,52.75
2022-11-06T04:36:45.253Z,46.25
2022-11-06T04:39:28.741Z,45.50
2022-11-06T04:42:08.468Z,51.00
2022-11-06T04:44:45.389Z,47.50
2022-11-06T04:47:22.647Z,54.00
2022-11-06T04:49:59.779Z,43.50
2022-11-06T04:52:36.207Z,48.00
2022-11-06T04:55:10.357Z,43.00
2022-11-06T04:57:44.010Z,51.75
2022-11-06T05:00:18.846Z,47.50
2022-11-06T05:02:51.705Z,47.00
2022-11-06T05:05:25.184Z,48.25
2022-11-06T05:08:00.331Z,33.25
2022-11-06T05:10:33.535Z,48.50
2022-11-06T05:13:07.143Z,45.50
2022-11-06T05:15:41.774Z,44.25
2022-11-06T05:18:15.669Z,49.75
2022-11-06T05:20:49.581Z,42.50
2022-11-06T05:23:23.899Z,39.50
2022-11-06T05:25:57.221Z,41.50
2022-11-06T05:28:30.888Z,46.50
2022-11-06T05:31:04.894Z,38.75
2022-11-06T05:33:37.825Z,46.25
2022-11-06T05:36:11.693Z,41.25
2022-11-06T05:38:47.111Z,40.25
2022-11-06T05:41:20.833Z,38.00
2022-11-06T05:43:55.016Z,46.00
2022-11-06T05:46:47.682Z,36.25
2022-11-06T05:49:22.519Z,46.50
2022-11-06T05:51:55.333Z,42.50
2022-11-06T05:54:29.531Z,47.25
2022-11-06T05:57:03.123Z,47.75
2022-11-06T05:59:36.024Z,48.00
2022-11-06T06:02:09.060Z,44.50
2022-11-06T06:04:43.019Z,48.75
2022-11-06T06:07:16.847Z,42.50
2022-11-06T06:09:52.122Z,45.00
2022-11-06T06:12:26.446Z,50.00
2022-11-06T06:14:59.283Z,38.50
2022-11-06T06:17:32.869Z,37.50
2022-11-06T06:20:08.899Z,44.00
2022-11-06T06:22:42.561Z,45.00
2022-11-06T06:25:22.975Z,43.00
2022-11-06T06:27:57.229Z,52.00
2022-11-06T06:30:30.083Z,45.00
2022-11-06T06:33:06.913Z,38.25
2022-11-06T06:35:39.723Z,44.50
2022-11-06T06:38:12.847Z,43.25
2022-11-06T06:40:48.343Z,42.50
2022-11-06T06:43:21.990Z,44.00
2022-11-06T06:45:55.729Z,46.00
2022-11-06T06:48:29.718Z,44.50
2022-11-06T06:51:05.180Z,45.50
2022-11-06T06:53:37.977Z,50.25
2022-11-06T06:56:13.017Z,38.50
2022-11-06T06:58:47.118Z,41.50
2022-11-06T07:01:20.120Z,47.25
2022-11-06T07:03:53.226Z,47.50
2022-11-06T07:06:27.166Z,44.25
2022-11-06T07:09:00.054Z,44.00
2022-11-06T07:11:35.181Z,15.75
2022-11-06T07:14:08.910Z,47.25
2022-11-06T07:16:42.582Z,49.00
2022-11-06T07:19:15.470Z,46.00
2022-11-06T07:21:48.350Z,38.50
2022-11-06T07:24:22.061Z,43.75
2022-11-06T07:26:56.364Z,36.00
2022-11-06T07:29:30.317Z,36.25
2022-11-06T07:32:04.788Z,33.25
2022-11-06T07:34:39.231Z,2374.20
2022-11-06T07:39:05.637Z,3577.20
2022-11-06T07:41:39.187Z,35.75
2022-11-06T07:44:11.986Z,29.00
2022-11-06T07:46:45.552Z,35.50
2022-11-06T07:49:19.298Z,31.50
2022-11-06T07:51:52.351Z,28.75
2022-11-06T07:54:27.447Z,29.75
2022-11-06T07:57:00.267Z,35.25
2022-11-06T07:59:35.002Z,69.75
2022-11-06T08:02:10.869Z,72.50
2022-11-06T08:04:44.960Z,64.25
2022-11-06T08:07:18.533Z,71.75
2022-11-06T08:09:53.690Z,81.50
2022-11-06T08:12:27.528Z,58.25
2022-11-06T08:15:00.518Z,52.25
2022-11-06T08:17:33.435Z,45.50
2022-11-06T08:20:08.542Z,51.00
2022-11-06T08:22:42.048Z,51.25
2022-11-06T08:25:17.282Z,71.50
2022-11-06T08:27:50.141Z,146.75
2022-11-06T08:30:23.840Z,45.00
2022-11-06T08:33:01.424Z,38.50
2022-11-06T08:35:36.357Z,3780.40
2022-11-06T08:38:09.881Z,29.50
2022-11-06T08:40:47.065Z,28.75
2022-11-06T08:43:24.385Z,255.40
2022-11-06T08:45:58.057Z,26.00
2022-11-06T08:48:31.615Z,20.50
2022-11-06T08:51:06.896Z,213.75
2022-11-06T08:53:39.871Z,19.25
2022-11-06T08:56:16.002Z,674.75
2022-11-06T08:58:54.448Z,16.50
2022-11-06T09:01:29.416Z,56.00
2022-11-06T09:04:03.208Z,3756.40
2022-11-06T09:06:36.172Z,686.75
2022-11-06T09:09:10.124Z,3672.80
2022-11-06T09:11:44.389Z,3760.00
2022-11-06T09:14:17.186Z,3012.00
2022-11-06T09:16:50.062Z,3751.00
2022-11-06T09:19:22.865Z,1773.40
2022-11-06T09:21:56.016Z,3705.80
2022-11-06T09:24:57.072Z,3705.80
2022-11-06T09:27:24.789Z,3673.25
2022-11-06T09:29:58.353Z,3701.25
2022-11-06T09:32:31.978Z,3698.80
2022-11-06T09:35:06.175Z,3685.80
2022-11-06T09:37:40.136Z,3681.00
2022-11-06T09:40:21.623Z,1978.25
2022-11-06T09:43:13.335Z,2261.75
2022-11-06T09:45:53.798Z,3587.50
2022-11-06T09:48:35.957Z,3673.00
2022-11-06T09:51:19.741Z,3663.50
2022-11-06T09:53:58.464Z,3671.00
2022-11-06T09:56:36.303Z,3657.50
2022-11-06T09:59:16.208Z,3649.75
2022-11-06T10:01:54.474Z,3652.80
2022-11-06T10:04:42.550Z,3683.25
2022-11-06T10:07:27.325Z,3689.20
2022-11-06T10:10:02.390Z,3678.20
2022-11-06T10:12:53.672Z,3701.25
2022-11-06T10:15:34.197Z,3691.25
2022-11-06T10:18:15.062Z,3636.80
2022-11-06T10:20:54.901Z,3695.25
2022-11-06T10:23:37.589Z,3661.50
2022-11-06T10:26:15.460Z,3512.75
2022-11-06T10:29:04.038Z,3681.00
2022-11-06T10:31:49.788Z,2604.40
2022-11-06T10:34:26.825Z,1421.00
2022-11-06T10:37:07.491Z,2600.00
2022-11-06T10:39:41.938Z,3587.25
2022-11-06T10:42:19.196Z,3669.80
2022-11-06T10:44:58.737Z,3677.00
2022-11-06T10:47:38.067Z,150.40
2022-11-06T10:50:15.672Z,3656.00
2022-11-06T10:52:57.768Z,3674.60
2022-11-06T10:55:54.662Z,3506.00
2022-11-06T10:58:32.395Z,1861.00
2022-11-06T11:01:10.421Z,1155.00
2022-11-06T11:03:46.889Z,1243.50
2022-11-06T11:06:20.653Z,3464.60
2022-11-06T11:08:54.026Z,2319.00
2022-11-06T11:11:28.524Z,3668.20
2022-11-06T11:14:22.761Z,1596.00
2022-11-06T11:16:58.305Z,3634.00
2022-11-06T11:19:41.543Z,3661.00
2022-11-06T11:22:20.676Z,3650.80
2022-11-06T11:25:03.549Z,3566.40
2022-11-06T11:27:39.352Z,433.25
2022-11-06T11:30:23.152Z,3647.50
2022-11-06T11:32:57.378Z,427.25
2022-11-06T11:35:33.289Z,2647.00
2022-11-06T11:38:12.375Z,3638.60
2022-11-06T11:40:46.886Z,1514.80
2022-11-06T11:43:26.353Z,3193.60
2022-11-06T11:46:19.204Z,1941.75
2022-11-06T11:48:55.865Z,3157.60
2022-11-06T11:51:33.261Z,3514.25
2022-11-06T11:54:17.554Z,3632.20
2022-11-06T11:57:09.559Z,3592.75
2022-11-06T11:59:49.252Z,3242.40
2022-11-06T12:02:28.476Z,3606.50
2022-11-06T12:05:05.086Z,3590.60
2022-11-06T12:07:46.399Z,2191.60
2022-11-06T12:10:28.483Z,3616.20
2022-11-06T12:13:04.800Z,1237.00
2022-11-06T12:15:47.308Z,3605.00
2022-11-06T12:18:25.057Z,3578.80
2022-11-06T12:21:03.163Z,3546.20
2022-11-06T12:23:43.463Z,3599.80
2022-11-06T12:26:33.586Z,3587.50
2022-11-06T12:29:14.098Z,2360.25
2022-11-06T12:31:54.014Z,3587.50
2022-11-06T12:34:35.276Z,3596.40
2022-11-06T12:37:19.324Z,3344.20
2022-11-06T12:40:01.236Z,3593.80
2022-11-06T12:42:36.968Z,3622.00
2022-11-06T12:45:13.450Z,3611.80
2022-11-06T12:47:53.036Z,261.50
2022-11-06T12:50:40.211Z,3641.50
2022-11-06T12:53:22.240Z,3645.50
2022-11-06T12:56:03.963Z,94.75
2022-11-06T12:58:53.406Z,3676.20
2022-11-06T13:01:38.474Z,92.20
2022-11-06T13:04:24.914Z,1819.00
2022-11-06T13:07:25.162Z,3661.50
2022-11-06T13:10:33.813Z,3652.80
2022-11-06T13:13:27.926Z,3656.00
2022-11-06T13:16:12.013Z,3590.60
2022-11-06T13:18:53.274Z,3660.80
2022-11-06T13:21:38.874Z,48.25
2022-11-06T13:24:18.993Z,3652.80
2022-11-06T13:27:00.940Z,98.00
2022-11-06T13:29:36.382Z,3484.00
2022-11-06T13:32:15.672Z,2216.00
2022-11-06T13:34:53.898Z,2240.20
2022-11-06T13:37:38.861Z,3702.00
2022-11-06T13:40:25.393Z,3232.00
2022-11-06T13:43:04.719Z,3692.20
2022-11-06T13:45:47.673Z,3681.40
2022-11-06T13:48:37.034Z,3638.60
2022-11-06T13:51:18.106Z,11.75
2022-11-06T13:54:02.372Z,3687.80
2022-11-06T13:57:09.517Z,3713.75
2022-11-06T14:00:01.101Z,3709.50
2022-11-06T14:02:57.660Z,3438.50
2022-11-06T14:05:52.854Z,3717.00
2022-11-06T14:08:30.080Z,3743.00
2022-11-06T14:11:07.857Z,7.00
2022-11-06T14:13:42.356Z,3270.25
2022-11-06T14:16:31.422Z,3496.00
2022-11-06T14:19:13.240Z,3705.50
2022-11-06T14:21:50.332Z,5.33
2022-11-06T14:24:32.923Z,8.67
2022-11-06T14:27:10.881Z,12.00
2022-11-06T14:30:05.563Z,13.25
2022-11-06T14:32:41.670Z,15.33
2022-11-06T14:35:51.513Z,3676.60
2022-11-06T14:38:39.494Z,3715.40
2022-11-06T14:41:52.103Z,8.67
2022-11-06T14:44:45.011Z,11.67
2022-11-06T14:47:37.352Z,902.20
2022-11-06T14:50:27.294Z,1530.00
2022-11-06T14:53:03.359Z,838.60
2022-11-06T14:55:44.382Z,2352.25
2022-11-06T14:58:22.430Z,408.00
2022-11-06T15:00:58.202Z,86.00
2022-11-06T15:03:37.022Z,3710.00
2022-11-06T15:06:40.168Z,8.25
2022-11-06T15:09:15.732Z,18.25
2022-11-06T15:12:10.798Z,118.60
2022-11-06T15:14:58.364Z,2256.20
2022-11-06T15:17:36.423Z,2603.40
2022-11-06T15:20:22.062Z,24.25
2022-11-06T15:23:05.252Z,3689.50
2022-11-06T15:25:42.862Z,15.25
2022-11-06T15:28:23.307Z,3366.00
2022-11-06T15:31:02.830Z,3702.00
2022-11-06T15:33:42.549Z,107.60
2022-11-06T15:36:18.640Z,3695.60
2022-11-06T15:38:52.596Z,3636.40
2022-11-06T15:41:28.123Z,3710.00
2022-11-06T15:44:04.329Z,2250.20
2022-11-06T15:46:37.562Z,879.60
2022-11-06T15:49:19.517Z,1192.00
2022-11-06T15:51:54.646Z,9.20
2022-11-06T15:54:37.056Z,3425.75
2022-11-06T15:57:19.328Z,3701.25
2022-11-06T16:00:09.538Z,142.20
2022-11-06T16:02:51.056Z,3721.25
2022-11-06T16:05:25.929Z,1080.50
2022-11-06T16:08:02.904Z,3694.20
2022-11-06T16:10:38.861Z,3711.50
2022-11-06T16:13:15.141Z,2416.80
2022-11-06T16:15:53.510Z,1770.60
2022-11-06T16:18:29.479Z,3728.60
2022-11-06T16:21:11.386Z,3697.40
2022-11-06T16:23:48.343Z,3719.25
2022-11-06T16:26:26.371Z,1508.80
2022-11-06T16:28:59.733Z,684.75
2022-11-06T16:31:34.126Z,3707.00
2022-11-06T16:34:20.420Z,3719.75
2022-11-06T16:37:00.583Z,3723.50
2022-11-06T16:39:50.912Z,3723.50
2022-11-06T16:42:30.643Z,3719.60
2022-11-06T16:45:28.268Z,105.40
2022-11-06T16:48:32.107Z,3270.25
2022-11-06T16:51:11.522Z,3713.80
2022-11-06T16:53:54.119Z,81.20
2022-11-06T16:56:31.058Z,3740.25
2022-11-06T16:59:09.835Z,91.00
2022-11-06T17:01:47.124Z,450.20
2022-11-06T17:04:26.484Z,3713.80
2022-11-06T17:07:00.820Z,3526.80
2022-11-06T17:09:35.144Z,3692.60
2022-11-06T17:12:11.827Z,2627.50
2022-11-06T17:14:47.172Z,3120.25
2022-11-06T17:17:27.037Z,1874.40
2022-11-06T17:20:02.228Z,3769.80
2022-11-06T17:22:35.213Z,3744.25
2022-11-06T17:25:08.982Z,3481.25
2022-11-06T17:27:43.184Z,42.00
2022-11-06T17:30:16.740Z,3305.00
2022-11-06T17:32:49.597Z,3771.40
2022-11-06T17:35:23.784Z,3757.00
2022-11-06T17:37:57.306Z,230.50
2022-11-06T17:40:30.868Z,3781.60
2022-11-06T17:43:03.709Z,2273.20
2022-11-06T17:45:36.991Z,1935.00
2022-11-06T17:48:10.828Z,94.40
2022-11-06T17:51:02.568Z,3745.20
2022-11-06T17:53:35.520Z,3761.25
2022-11-06T17:56:08.839Z,3793.20
2022-11-06T17:58:41.708Z,62.60
2022-11-06T18:01:14.930Z,3333.20
2022-11-06T18:03:48.760Z,1900.40
2022-11-06T18:06:23.886Z,3766.40
2022-11-06T18:08:57.777Z,3784.50
2022-11-06T18:11:31.305Z,358.25
2022-11-06T18:14:05.702Z,3680.33
2022-11-06T18:16:43.991Z,3487.00
2022-11-06T18:19:19.458Z,2312.80
2022-11-06T18:21:55.665Z,3758.80
2022-11-06T18:24:29.479Z,2028.40
2022-11-06T18:27:03.019Z,1133.60
2022-11-06T18:29:36.620Z,3798.75
2022-11-06T18:32:10.265Z,3812.00
2022-11-06T18:34:43.876Z,3785.00
2022-11-06T18:37:19.505Z,3773.20
2022-11-06T18:39:52.449Z,3782.00
2022-11-06T18:42:26.054Z,2327.60
2022-11-06T18:44:59.833Z,1186.60
2022-11-06T18:47:33.418Z,2656.60
2022-11-06T18:50:08.188Z,11.50
2022-11-06T18:52:57.416Z,3325.25
2022-11-06T18:55:31.297Z,3518.25
2022-11-06T18:58:05.061Z,3785.00
2022-11-06T19:00:38.826Z,4.50
2022-11-06T19:03:11.863Z,3686.40
2022-11-06T19:05:48.364Z,3803.80
2022-11-06T19:08:24.135Z,3758.80
2022-11-06T19:10:58.111Z,3765.00
2022-11-06T19:13:30.953Z,3786.25
2022-11-06T19:16:06.438Z,213.25
2022-11-06T19:18:41.337Z,3753.40
2022-11-06T19:21:15.107Z,19.75
2022-11-06T19:23:49.461Z,3785.00
2022-11-06T19:26:31.123Z,3793.20
2022-11-06T19:29:06.052Z,3440.75
2022-11-06T19:31:39.424Z,3421.00
2022-11-06T19:34:14.798Z,3786.50
2022-11-06T19:36:48.866Z,3782.00
2022-11-06T19:39:24.761Z,3639.00
2022-11-06T19:41:59.611Z,3331.75
2022-11-06T19:44:33.226Z,448.20
2022-11-06T19:47:07.048Z,3708.00
2022-11-06T19:49:40.012Z,3790.75
2022-11-06T19:52:42.589Z,3780.20
2022-11-06T19:55:26.073Z,3776.80
2022-11-06T19:58:00.457Z,130.60
2022-11-06T20:00:34.187Z,3422.00
2022-11-06T20:03:07.411Z,3792.50
2022-11-06T20:05:42.398Z,3785.00
2022-11-06T20:08:16.478Z,3778.00
2022-11-06T20:10:51.629Z,3773.50
2022-11-06T20:13:25.259Z,3794.75
2022-11-06T20:15:59.176Z,3786.80
2022-11-06T20:18:33.207Z,285.60
2022-11-06T20:21:08.304Z,3753.20
2022-11-06T20:23:41.937Z,3697.50
2022-11-06T20:26:17.601Z,3774.80
2022-11-06T20:28:52.207Z,3777.80
2022-11-06T20:31:26.352Z,3782.25
2022-11-06T20:34:00.188Z,3790.75
2022-11-06T20:36:35.758Z,3786.80
2022-11-06T20:39:09.241Z,3049.25
2022-11-06T20:41:44.492Z,3782.00
2022-11-06T20:44:18.643Z,6.50
2022-11-06T20:46:52.301Z,3770.40
2022-11-06T20:49:29.183Z,3675.00
2022-11-06T20:52:17.285Z,3689.25
2022-11-06T20:54:51.057Z,3784.25
2022-11-06T20:57:25.401Z,3792.75
2022-11-06T20:59:58.657Z,3690.25
2022-11-06T21:02:33.912Z,3773.50
2022-11-06T21:05:08.402Z,3805.25
2022-11-06T21:07:41.367Z,3807.40
2022-11-06T21:10:14.288Z,3801.50
2022-11-06T21:12:48.551Z,424.80
2022-11-06T21:15:22.732Z,3446.50
2022-11-06T21:17:55.598Z,3783.80
2022-11-06T21:20:28.486Z,2991.00
2022-11-06T21:23:01.664Z,3795.00
2022-11-06T21:25:44.007Z,1583.50
2022-11-06T21:28:20.290Z,3717.00
2022-11-06T21:30:54.216Z,3808.80
2022-11-06T21:33:27.891Z,3809.75
2022-11-06T21:36:10.094Z,3730.00
2022-11-06T21:38:47.261Z,1926.20
2022-11-06T21:41:25.697Z,3797.00
2022-11-06T21:44:01.668Z,3788.50
2022-11-06T21:46:35.702Z,3799.00
2022-11-06T21:49:09.452Z,3805.25
2022-11-06T21:51:43.661Z,3782.00
2022-11-06T21:54:34.551Z,3780.00
2022-11-06T21:57:08.387Z,3803.50
2022-11-06T21:59:42.644Z,3803.50
2022-11-06T22:02:15.622Z,3778.40
2022-11-06T22:04:48.539Z,1206.40
2022-11-06T22:07:22.229Z,3631.00
2022-11-06T22:09:55.892Z,3803.50
2022-11-06T22:12:29.919Z,3783.60
2022-11-06T22:15:05.697Z,1655.25
2022-11-06T22:17:39.348Z,1917.00
2022-11-06T22:20:13.982Z,3792.60
2022-11-06T22:22:46.910Z,3801.25
2022-11-06T22:25:20.472Z,3812.00
2022-11-06T22:27:54.192Z,3808.00
2022-11-06T22:30:28.445Z,3375.50
2022-11-06T22:33:01.456Z,3816.50
2022-11-06T22:35:35.089Z,3816.25
2022-11-06T22:38:10.107Z,3822.75
2022-11-06T22:40:53.539Z,3829.50
2022-11-06T22:43:27.673Z,2.50
2022-11-06T22:46:04.338Z,38.75
2022-11-06T22:48:38.383Z,3655.80
2022-11-06T22:51:13.539Z,3727.00
2022-11-06T22:53:46.911Z,1.75
2022-11-06T22:56:20.956Z,14.00
2022-11-06T22:58:55.862Z,3814.25
2022-11-06T23:01:34.938Z,345.50
2022-11-06T23:04:15.927Z,3800.40
2022-11-06T23:06:49.866Z,3364.60
2022-11-06T23:09:23.664Z,3606.20
2022-11-06T23:11:57.591Z,3049.75
2022-11-06T23:14:32.397Z,3448.40
2022-11-06T23:17:06.900Z,3519.00
2022-11-06T23:19:40.748Z,408.40
2022-11-06T23:22:31.542Z,818.00
2022-11-06T23:25:05.844Z,3379.60
2022-11-06T23:27:39.641Z,3.75
2022-11-06T23:30:13.780Z,1687.25
2022-11-06T23:32:49.199Z,838.50
2022-11-06T23:35:24.410Z,3827.25
2022-11-06T23:37:58.805Z,3797.00
2022-11-06T23:40:32.589Z,1273.60
2022-11-06T23:43:06.189Z,203.80
2022-11-06T23:45:50.888Z,1493.75
2022-11-06T23:48:26.085Z,2671.00
2022-11-06T23:51:01.467Z,3825.00
2022-11-06T23:53:35.059Z,1533.00
2022-11-06T23:56:09.646Z,1047.80
2022-11-06T23:58:43.823Z,186.00
